sensor_id;sensor_type;location;lat;lon;timestamp;P1;durP1;ratioP1;P2;durP2;ratioP2
11535;SDS011;5824;49.336;8.652;2022-12-18T00:01:15;70.03;;;27.50;;
11535;SDS011;5824;49.336;8.652;2022-12-18T00:04:01;63.30;;;24.30;;
11535;SDS011;5824;49.336;8.652;2022-12-18T00:06:29;60.17;;;25.40;;
11535;SDS011;5824;49.336;8.652;2022-12-18T00:08:56;63.33;;;24.60;;
11535;SDS011;5824;49.336;8.652;2022-12-18T00:11:23;60.73;;;24.60;;
11535;SDS011;5824;49.336;8.652;2022-12-18T00:13:50;69.83;;;26.53;;
11535;SDS011;5824;49.336;8.652;2022-12-18T00:16:19;66.47;;;24.90;;
11535;SDS011;5824;49.336;8.652;2022-12-18T00:18:46;70.27;;;26.70;;
11535;SDS011;5824;49.336;8.652;2022-12-18T00:21:17;57.10;;;23.77;;
11535;SDS011;5824;49.336;8.652;2022-12-18T00:23:44;69.53;;;24.60;;
11535;SDS011;5824;49.336;8.652;2022-12-18T00:26:12;68.77;;;25.40;;
11535;SDS011;5824;49.336;8.652;2022-12-18T00:28:40;62.30;;;25.90;;
11535;SDS011;5824;49.336;8.652;2022-12-18T00:31:07;64.57;;;25.23;;
11535;SDS011;5824;49.336;8.652;2022-12-18T00:33:34;58.30;;;24.90;;
11535;SDS011;5824;49.336;8.652;2022-12-18T00:36:01;66.60;;;24.17;;
11535;SDS011;5824;49.336;8.652;2022-12-18T00:38:27;61.97;;;22.57;;
11535;SDS011;5824;49.336;8.652;2022-12-18T00:40:53;62.03;;;23.77;;
11535;SDS011;5824;49.336;8.652;2022-12-18T00:43:18;56.43;;;25.30;;
11535;SDS011;5824;49.336;8.652;2022-12-18T00:45:44;62.07;;;25.67;;
11535;SDS011;5824;49.336;8.652;2022-12-18T00:48:10;60.10;;;24.23;;
11535;SDS011;5824;49.336;8.652;2022-12-18T00:50:35;67.90;;;26.03;;
11535;SDS011;5824;49.336;8.652;2022-12-18T00:53:01;65.37;;;23.93;;
11535;SDS011;5824;49.336;8.652;2022-12-18T00:55:26;66.10;;;26.27;;
11535;SDS011;5824;49.336;8.652;2022-12-18T00:57:52;55.43;;;24.80;;
11535;SDS011;5824;49.336;8.652;2022-12-18T01:00:18;56.43;;;23.20;;
11535;SDS011;5824;49.336;8.652;2022-12-18T01:02:43;69.33;;;23.77;;
11535;SDS011;5824;49.336;8.652;2022-12-18T01:05:10;62.87;;;24.30;;
11535;SDS011;5824;49.336;8.652;2022-12-18T01:07:37;65.33;;;24.17;;
11535;SDS011;5824;49.336;8.652;2022-12-18T01:10:02;61.57;;;25.40;;
11535;SDS011;5824;49.336;8.652;2022-12-18T01:12:29;63.30;;;25.70;;
11535;SDS011;5824;49.336;8.652;2022-12-18T01:14:54;66.10;;;24.60;;
11535;SDS011;5824;49.336;8.652;2022-12-18T01:17:21;70.83;;;25.53;;
11535;SDS011;5824;49.336;8.652;2022-12-18T01:19:46;66.87;;;25.40;;
11535;SDS011;5824;49.336;8.652;2022-12-18T01:22:12;66.60;;;25.37;;
11535;SDS011;5824;49.336;8.652;2022-12-18T01:24:38;58.97;;;24.07;;
11535;SDS011;5824;49.336;8.652;2022-12-18T01:27:03;62.77;;;25.97;;
11535;SDS011;5824;49.336;8.652;2022-12-18T01:29:29;62.97;;;24.00;;
11535;SDS011;5824;49.336;8.652;2022-12-18T01:31:55;67.10;;;24.80;;
11535;SDS011;5824;49.336;8.652;2022-12-18T01:34:21;60.27;;;24.03;;
11535;SDS011;5824;49.336;8.652;2022-12-18T01:36:47;59.37;;;24.50;;
11535;SDS011;5824;49.336;8.652;2022-12-18T01:39:14;57.90;;;24.50;;
11535;SDS011;5824;49.336;8.652;2022-12-18T01:41:40;56.40;;;24.30;;
11535;SDS011;5824;49.336;8.652;2022-12-18T01:47:20;66.13;;;23.10;;
11535;SDS011;5824;49.336;8.652;2022-12-18T01:50:07;61.70;;;23.20;;
11535;SDS011;5824;49.336;8.652;2022-12-18T01:52:33;75.60;;;25.77;;
11535;SDS011;5824;49.336;8.652;2022-12-18T01:55:00;63.30;;;24.10;;
11535;SDS011;5824;49.336;8.652;2022-12-18T01:57:28;67.00;;;24.63;;
11535;SDS011;5824;49.336;8.652;2022-12-18T01:59:54;61.00;;;23.53;;
11535;SDS011;5824;49.336;8.652;2022-12-18T02:02:23;72.33;;;25.40;;
11535;SDS011;5824;49.336;8.652;2022-12-18T02:04:51;61.67;;;23.23;;
11535;SDS011;5824;49.336;8.652;2022-12-18T02:07:23;59.43;;;23.73;;
11535;SDS011;5824;49.336;8.652;2022-12-18T02:10:04;56.20;;;25.50;;
11535;SDS011;5824;49.336;8.652;2022-12-18T02:12:48;79.57;;;24.20;;
11535;SDS011;5824;49.336;8.652;2022-12-18T02:15:36;60.23;;;23.53;;
11535;SDS011;5824;49.336;8.652;2022-12-18T02:18:10;61.00;;;22.83;;
11535;SDS011;5824;49.336;8.652;2022-12-18T02:20:44;61.73;;;22.00;;
11535;SDS011;5824;49.336;8.652;2022-12-18T02:24:01;50.00;;;23.33;;
11535;SDS011;5824;49.336;8.652;2022-12-18T02:26:16;57.53;;;21.83;;
11535;SDS011;5824;49.336;8.652;2022-12-18T02:29:00;63.40;;;24.20;;
11535;SDS011;5824;49.336;8.652;2022-12-18T02:31:30;58.97;;;22.70;;
11535;SDS011;5824;49.336;8.652;2022-12-18T02:34:04;65.07;;;22.93;;
11535;SDS011;5824;49.336;8.652;2022-12-18T02:36:32;53.70;;;21.37;;
11535;SDS011;5824;49.336;8.652;2022-12-18T02:38:59;57.90;;;21.07;;
11535;SDS011;5824;49.336;8.652;2022-12-18T02:41:27;57.20;;;21.60;;
11535;SDS011;5824;49.336;8.652;2022-12-18T02:43:56;57.27;;;21.53;;
11535;SDS011;5824;49.336;8.652;2022-12-18T02:48:57;50.60;;;20.97;;
11535;SDS011;5824;49.336;8.652;2022-12-18T02:51:33;55.03;;;22.03;;
11535;SDS011;5824;49.336;8.652;2022-12-18T02:54:10;63.30;;;21.40;;
11535;SDS011;5824;49.336;8.652;2022-12-18T02:57:08;50.00;;;21.20;;
11535;SDS011;5824;49.336;8.652;2022-12-18T03:00:03;56.87;;;21.27;;
11535;SDS011;5824;49.336;8.652;2022-12-18T03:02:38;52.73;;;20.67;;
11535;SDS011;5824;49.336;8.652;2022-12-18T03:05:25;68.03;;;20.73;;
11535;SDS011;5824;49.336;8.652;2022-12-18T03:08:02;68.50;;;21.30;;
11535;SDS011;5824;49.336;8.652;2022-12-18T03:10:34;54.83;;;19.90;;
11535;SDS011;5824;49.336;8.652;2022-12-18T03:13:04;54.67;;;20.77;;
11535;SDS011;5824;49.336;8.652;2022-12-18T03:15:44;73.77;;;21.53;;
11535;SDS011;5824;49.336;8.652;2022-12-18T03:18:14;58.60;;;20.77;;
11535;SDS011;5824;49.336;8.652;2022-12-18T03:20:58;43.23;;;18.03;;
11535;SDS011;5824;49.336;8.652;2022-12-18T03:23:27;49.93;;;19.27;;
11535;SDS011;5824;49.336;8.652;2022-12-18T03:25:57;49.37;;;20.17;;
11535;SDS011;5824;49.336;8.652;2022-12-18T03:28:25;57.37;;;21.03;;
11535;SDS011;5824;49.336;8.652;2022-12-18T03:30:57;52.97;;;19.70;;
11535;SDS011;5824;49.336;8.652;2022-12-18T03:33:25;47.00;;;19.50;;
11535;SDS011;5824;49.336;8.652;2022-12-18T03:35:54;55.37;;;20.70;;
11535;SDS011;5824;49.336;8.652;2022-12-18T03:38:20;61.07;;;20.90;;
11535;SDS011;5824;49.336;8.652;2022-12-18T03:46:11;109.17;;;23.80;;
11535;SDS011;5824;49.336;8.652;2022-12-18T03:48:46;111.47;;;20.07;;
11535;SDS011;5824;49.336;8.652;2022-12-18T03:51:24;53.70;;;19.13;;
11535;SDS011;5824;49.336;8.652;2022-12-18T03:53:58;85.70;;;21.33;;
11535;SDS011;5824;49.336;8.652;2022-12-18T03:56:29;54.50;;;20.43;;
11535;SDS011;5824;49.336;8.652;2022-12-18T03:58:56;62.73;;;20.07;;
11535;SDS011;5824;49.336;8.652;2022-12-18T04:01:32;52.67;;;20.80;;
11535;SDS011;5824;49.336;8.652;2022-12-18T04:04:01;73.80;;;22.43;;
11535;SDS011;5824;49.336;8.652;2022-12-18T04:06:28;56.90;;;20.97;;
11535;SDS011;5824;49.336;8.652;2022-12-18T04:08:56;52.10;;;20.03;;
11535;SDS011;5824;49.336;8.652;2022-12-18T04:11:22;46.73;;;20.33;;
11535;SDS011;5824;49.336;8.652;2022-12-18T04:13:48;53.03;;;20.33;;
11535;SDS011;5824;49.336;8.652;2022-12-18T04:16:13;59.73;;;21.60;;
11535;SDS011;5824;49.336;8.652;2022-12-18T04:18:39;48.80;;;19.77;;
11535;SDS011;5824;49.336;8.652;2022-12-18T04:21:04;52.70;;;21.40;;
11535;SDS011;5824;49.336;8.652;2022-12-18T04:23:30;70.10;;;21.53;;
11535;SDS011;5824;49.336;8.652;2022-12-18T04:25:56;56.30;;;19.70;;
11535;SDS011;5824;49.336;8.652;2022-12-18T04:28:21;54.30;;;20.07;;
11535;SDS011;5824;49.336;8.652;2022-12-18T04:30:48;85.40;;;21.77;;
11535;SDS011;5824;49.336;8.652;2022-12-18T04:33:13;87.13;;;21.33;;
11535;SDS011;5824;49.336;8.652;2022-12-18T04:35:39;66.77;;;20.33;;
11535;SDS011;5824;49.336;8.652;2022-12-18T04:38:05;73.00;;;20.30;;
11535;SDS011;5824;49.336;8.652;2022-12-18T04:40:33;113.40;;;20.50;;
11535;SDS011;5824;49.336;8.652;2022-12-18T04:42:59;90.33;;;20.27;;
11535;SDS011;5824;49.336;8.652;2022-12-18T04:45:24;65.50;;;22.57;;
11535;SDS011;5824;49.336;8.652;2022-12-18T04:47:50;69.40;;;19.67;;
11535;SDS011;5824;49.336;8.652;2022-12-18T04:50:15;60.17;;;22.87;;
11535;SDS011;5824;49.336;8.652;2022-12-18T04:52:41;71.20;;;20.43;;
11535;SDS011;5824;49.336;8.652;2022-12-18T04:55:06;61.83;;;22.30;;
11535;SDS011;5824;49.336;8.652;2022-12-18T04:57:32;60.27;;;21.10;;
11535;SDS011;5824;49.336;8.652;2022-12-18T04:59:58;50.77;;;19.83;;
11535;SDS011;5824;49.336;8.652;2022-12-18T05:02:23;60.57;;;21.40;;
11535;SDS011;5824;49.336;8.652;2022-12-18T05:04:49;57.63;;;20.90;;
11535;SDS011;5824;49.336;8.652;2022-12-18T05:07:14;53.37;;;20.97;;
11535;SDS011;5824;49.336;8.652;2022-12-18T05:09:40;58.83;;;21.27;;
11535;SDS011;5824;49.336;8.652;2022-12-18T05:12:05;50.20;;;20.70;;
11535;SDS011;5824;49.336;8.652;2022-12-18T05:14:31;53.63;;;20.43;;
11535;SDS011;5824;49.336;8.652;2022-12-18T05:16:56;54.60;;;20.87;;
11535;SDS011;5824;49.336;8.652;2022-12-18T05:19:22;49.53;;;20.60;;
11535;SDS011;5824;49.336;8.652;2022-12-18T05:21:47;56.50;;;22.00;;
11535;SDS011;5824;49.336;8.652;2022-12-18T05:24:13;59.50;;;21.33;;
11535;SDS011;5824;49.336;8.652;2022-12-18T05:26:38;52.77;;;20.83;;
11535;SDS011;5824;49.336;8.652;2022-12-18T05:29:04;54.67;;;20.63;;
11535;SDS011;5824;49.336;8.652;2022-12-18T05:31:29;50.87;;;20.50;;
11535;SDS011;5824;49.336;8.652;2022-12-18T05:33:55;59.53;;;20.77;;
11535;SDS011;5824;49.336;8.652;2022-12-18T05:36:21;60.60;;;23.17;;
11535;SDS011;5824;49.336;8.652;2022-12-18T05:38:46;52.57;;;21.70;;
11535;SDS011;5824;49.336;8.652;2022-12-18T05:41:12;53.77;;;21.93;;
11535;SDS011;5824;49.336;8.652;2022-12-18T05:43:38;64.30;;;23.37;;
11535;SDS011;5824;49.336;8.652;2022-12-18T05:46:22;63.37;;;20.13;;
11535;SDS011;5824;49.336;8.652;2022-12-18T05:48:47;71.43;;;21.43;;
11535;SDS011;5824;49.336;8.652;2022-12-18T05:51:15;68.13;;;23.30;;
11535;SDS011;5824;49.336;8.652;2022-12-18T05:53:42;69.63;;;20.93;;
11535;SDS011;5824;49.336;8.652;2022-12-18T05:56:13;88.23;;;21.40;;
11535;SDS011;5824;49.336;8.652;2022-12-18T05:58:40;57.03;;;20.77;;
11535;SDS011;5824;49.336;8.652;2022-12-18T06:01:16;75.53;;;23.57;;
11535;SDS011;5824;49.336;8.652;2022-12-18T06:03:43;55.70;;;24.90;;
11535;SDS011;5824;49.336;8.652;2022-12-18T06:06:27;60.23;;;22.80;;
11535;SDS011;5824;49.336;8.652;2022-12-18T06:08:54;54.50;;;23.70;;
11535;SDS011;5824;49.336;8.652;2022-12-18T06:11:21;48.20;;;20.67;;
11535;SDS011;5824;49.336;8.652;2022-12-18T06:13:55;54.70;;;21.57;;
11535;SDS011;5824;49.336;8.652;2022-12-18T06:16:21;56.60;;;21.37;;
11535;SDS011;5824;49.336;8.652;2022-12-18T06:18:47;64.63;;;23.30;;
11535;SDS011;5824;49.336;8.652;2022-12-18T06:21:12;51.90;;;22.50;;
11535;SDS011;5824;49.336;8.652;2022-12-18T06:23:38;58.27;;;24.30;;
11535;SDS011;5824;49.336;8.652;2022-12-18T06:26:06;55.17;;;22.80;;
11535;SDS011;5824;49.336;8.652;2022-12-18T06:28:32;54.90;;;22.80;;
11535;SDS011;5824;49.336;8.652;2022-12-18T06:30:58;47.40;;;23.80;;
11535;SDS011;5824;49.336;8.652;2022-12-18T06:33:25;56.70;;;22.80;;
11535;SDS011;5824;49.336;8.652;2022-12-18T06:35:52;51.67;;;21.10;;
11535;SDS011;5824;49.336;8.652;2022-12-18T06:38:17;54.80;;;24.07;;
11535;SDS011;5824;49.336;8.652;2022-12-18T06:40:43;48.50;;;22.37;;
11535;SDS011;5824;49.336;8.652;2022-12-18T06:43:08;49.13;;;23.70;;
11535;SDS011;5824;49.336;8.652;2022-12-18T06:45:34;52.37;;;23.17;;
11535;SDS011;5824;49.336;8.652;2022-12-18T06:47:59;45.70;;;21.67;;
11535;SDS011;5824;49.336;8.652;2022-12-18T06:50:25;47.03;;;20.47;;
11535;SDS011;5824;49.336;8.652;2022-12-18T06:52:50;51.33;;;23.50;;
11535;SDS011;5824;49.336;8.652;2022-12-18T06:55:16;52.03;;;23.23;;
11535;SDS011;5824;49.336;8.652;2022-12-18T06:57:42;55.17;;;22.97;;
11535;SDS011;5824;49.336;8.652;2022-12-18T07:00:07;50.33;;;22.23;;
11535;SDS011;5824;49.336;8.652;2022-12-18T07:02:33;49.17;;;20.40;;
11535;SDS011;5824;49.336;8.652;2022-12-18T07:04:59;43.10;;;21.40;;
11535;SDS011;5824;49.336;8.652;2022-12-18T07:07:25;49.73;;;23.37;;
11535;SDS011;5824;49.336;8.652;2022-12-18T07:09:50;47.17;;;22.33;;
11535;SDS011;5824;49.336;8.652;2022-12-18T07:12:16;39.57;;;20.07;;
11535;SDS011;5824;49.336;8.652;2022-12-18T07:14:42;44.80;;;21.10;;
11535;SDS011;5824;49.336;8.652;2022-12-18T07:17:08;46.57;;;21.63;;
11535;SDS011;5824;49.336;8.652;2022-12-18T07:19:33;51.73;;;22.60;;
11535;SDS011;5824;49.336;8.652;2022-12-18T07:21:59;50.07;;;20.50;;
11535;SDS011;5824;49.336;8.652;2022-12-18T07:24:25;42.97;;;21.00;;
11535;SDS011;5824;49.336;8.652;2022-12-18T15:30:22;45.57;;;17.80;;
11535;SDS011;5824;49.336;8.652;2022-12-18T15:32:50;45.03;;;18.23;;
11535;SDS011;5824;49.336;8.652;2022-12-18T15:37:46;49.17;;;18.60;;
11535;SDS011;5824;49.336;8.652;2022-12-18T15:40:13;47.83;;;18.60;;
11535;SDS011;5824;49.336;8.652;2022-12-18T15:42:46;50.60;;;18.97;;
11535;SDS011;5824;49.336;8.652;2022-12-18T15:45:32;40.53;;;18.20;;
11535;SDS011;5824;49.336;8.652;2022-12-18T15:47:58;62.37;;;24.10;;
11535;SDS011;5824;49.336;8.652;2022-12-18T15:50:24;58.40;;;24.00;;
11535;SDS011;5824;49.336;8.652;2022-12-18T15:52:51;44.20;;;20.13;;
11535;SDS011;5824;49.336;8.652;2022-12-18T15:55:20;51.23;;;20.07;;
11535;SDS011;5824;49.336;8.652;2022-12-18T15:58:06;58.53;;;23.37;;
11535;SDS011;5824;49.336;8.652;2022-12-18T16:00:33;54.47;;;25.07;;
11535;SDS011;5824;49.336;8.652;2022-12-18T16:03:00;46.60;;;21.70;;
11535;SDS011;5824;49.336;8.652;2022-12-18T16:05:26;42.70;;;19.57;;
11535;SDS011;5824;49.336;8.652;2022-12-18T16:07:53;53.53;;;23.40;;
11535;SDS011;5824;49.336;8.652;2022-12-18T16:10:19;52.30;;;23.03;;
11535;SDS011;5824;49.336;8.652;2022-12-18T16:12:45;54.70;;;21.30;;
11535;SDS011;5824;49.336;8.652;2022-12-18T16:15:12;43.83;;;20.43;;
11535;SDS011;5824;49.336;8.652;2022-12-18T16:17:40;44.70;;;20.50;;
11535;SDS011;5824;49.336;8.652;2022-12-18T16:20:11;47.60;;;21.30;;
11535;SDS011;5824;49.336;8.652;2022-12-18T16:22:41;43.40;;;18.73;;
11535;SDS011;5824;49.336;8.652;2022-12-18T16:27:45;50.73;;;22.40;;
11535;SDS011;5824;49.336;8.652;2022-12-18T16:30:14;51.43;;;22.97;;
11535;SDS011;5824;49.336;8.652;2022-12-18T16:32:40;51.50;;;21.93;;
11535;SDS011;5824;49.336;8.652;2022-12-18T16:35:08;48.90;;;20.27;;
11535;SDS011;5824;49.336;8.652;2022-12-18T16:37:35;45.33;;;19.57;;
11535;SDS011;5824;49.336;8.652;2022-12-18T16:40:00;47.80;;;21.10;;
11535;SDS011;5824;49.336;8.652;2022-12-18T16:42:26;46.87;;;21.43;;
11535;SDS011;5824;49.336;8.652;2022-12-18T16:44:51;43.43;;;20.50;;
11535;SDS011;5824;49.336;8.652;2022-12-18T16:47:17;53.33;;;19.80;;
11535;SDS011;5824;49.336;8.652;2022-12-18T16:49:43;49.50;;;20.40;;
11535;SDS011;5824;49.336;8.652;2022-12-18T16:52:09;42.17;;;19.37;;
11535;SDS011;5824;49.336;8.652;2022-12-18T16:54:35;46.20;;;20.33;;
11535;SDS011;5824;49.336;8.652;2022-12-18T16:57:01;42.00;;;18.87;;
11535;SDS011;5824;49.336;8.652;2022-12-18T16:59:29;47.70;;;20.03;;
11535;SDS011;5824;49.336;8.652;2022-12-18T17:01:54;45.80;;;19.23;;
11535;SDS011;5824;49.336;8.652;2022-12-18T17:04:21;39.43;;;17.50;;
11535;SDS011;5824;49.336;8.652;2022-12-18T17:06:47;37.77;;;17.40;;
11535;SDS011;5824;49.336;8.652;2022-12-18T17:09:19;39.00;;;18.40;;
11535;SDS011;5824;49.336;8.652;2022-12-18T17:11:48;41.63;;;19.67;;
11535;SDS011;5824;49.336;8.652;2022-12-18T17:14:14;46.53;;;19.40;;
11535;SDS011;5824;49.336;8.652;2022-12-18T17:16:42;49.37;;;20.87;;
11535;SDS011;5824;49.336;8.652;2022-12-18T17:19:07;44.93;;;19.80;;
11535;SDS011;5824;49.336;8.652;2022-12-18T17:21:33;42.10;;;19.80;;
11535;SDS011;5824;49.336;8.652;2022-12-18T17:23:59;43.90;;;19.33;;
11535;SDS011;5824;49.336;8.652;2022-12-18T17:26:25;41.13;;;19.83;;
11535;SDS011;5824;49.336;8.652;2022-12-18T17:28:51;43.87;;;19.63;;
11535;SDS011;5824;49.336;8.652;2022-12-18T17:31:17;42.70;;;19.60;;
11535;SDS011;5824;49.336;8.652;2022-12-18T17:33:45;43.77;;;19.87;;
11535;SDS011;5824;49.336;8.652;2022-12-18T17:36:11;46.97;;;20.60;;
11535;SDS011;5824;49.336;8.652;2022-12-18T17:38:37;49.00;;;23.87;;
11535;SDS011;5824;49.336;8.652;2022-12-18T17:41:06;46.47;;;21.90;;
11535;SDS011;5824;49.336;8.652;2022-12-18T17:43:33;42.80;;;19.47;;
11535;SDS011;5824;49.336;8.652;2022-12-18T17:46:03;42.73;;;19.53;;
11535;SDS011;5824;49.336;8.652;2022-12-18T17:48:30;44.77;;;18.43;;
11535;SDS011;5824;49.336;8.652;2022-12-18T17:51:00;46.80;;;20.20;;
11535;SDS011;5824;49.336;8.652;2022-12-18T17:53:26;49.37;;;20.20;;
11535;SDS011;5824;49.336;8.652;2022-12-18T17:55:55;42.70;;;20.07;;
11535;SDS011;5824;49.336;8.652;2022-12-18T17:58:23;44.47;;;17.77;;
11535;SDS011;5824;49.336;8.652;2022-12-18T18:00:49;37.97;;;18.73;;
11535;SDS011;5824;49.336;8.652;2022-12-18T18:03:15;35.43;;;17.13;;
11535;SDS011;5824;49.336;8.652;2022-12-18T18:05:40;35.30;;;16.90;;
11535;SDS011;5824;49.336;8.652;2022-12-18T18:08:06;40.17;;;19.00;;
11535;SDS011;5824;49.336;8.652;2022-12-18T18:10:34;44.97;;;18.93;;
11535;SDS011;5824;49.336;8.652;2022-12-18T18:13:02;36.70;;;17.57;;
11535;SDS011;5824;49.336;8.652;2022-12-18T18:15:54;35.67;;;17.60;;
11535;SDS011;5824;49.336;8.652;2022-12-18T18:18:23;39.63;;;17.60;;
11535;SDS011;5824;49.336;8.652;2022-12-18T18:20:48;42.37;;;18.47;;
11535;SDS011;5824;49.336;8.652;2022-12-18T18:23:14;38.33;;;18.20;;
11535;SDS011;5824;49.336;8.652;2022-12-18T18:25:39;40.80;;;17.90;;
11535;SDS011;5824;49.336;8.652;2022-12-18T18:28:05;39.87;;;19.20;;
11535;SDS011;5824;49.336;8.652;2022-12-18T18:30:30;38.80;;;17.67;;
11535;SDS011;5824;49.336;8.652;2022-12-18T18:32:56;40.53;;;18.27;;
11535;SDS011;5824;49.336;8.652;2022-12-18T18:35:21;38.50;;;17.30;;
11535;SDS011;5824;49.336;8.652;2022-12-18T18:37:47;43.23;;;18.20;;
11535;SDS011;5824;49.336;8.652;2022-12-18T18:40:13;37.33;;;17.13;;
11535;SDS011;5824;49.336;8.652;2022-12-18T18:42:39;38.83;;;18.53;;
11535;SDS011;5824;49.336;8.652;2022-12-18T18:45:04;38.20;;;18.37;;
11535;SDS011;5824;49.336;8.652;2022-12-18T18:47:30;37.63;;;17.67;;
11535;SDS011;5824;49.336;8.652;2022-12-18T18:49:56;38.13;;;18.37;;
11535;SDS011;5824;49.336;8.652;2022-12-18T18:52:21;40.53;;;18.77;;
11535;SDS011;5824;49.336;8.652;2022-12-18T18:54:47;42.60;;;18.93;;
11535;SDS011;5824;49.336;8.652;2022-12-18T18:57:15;43.67;;;18.70;;
11535;SDS011;5824;49.336;8.652;2022-12-18T18:59:41;42.17;;;19.13;;
11535;SDS011;5824;49.336;8.652;2022-12-18T19:02:13;45.17;;;19.37;;
11535;SDS011;5824;49.336;8.652;2022-12-18T19:04:39;38.00;;;17.63;;
11535;SDS011;5824;49.336;8.652;2022-12-18T19:07:05;38.53;;;18.43;;
11535;SDS011;5824;49.336;8.652;2022-12-18T19:09:31;43.90;;;18.80;;
11535;SDS011;5824;49.336;8.652;2022-12-18T19:11:57;39.57;;;18.73;;
11535;SDS011;5824;49.336;8.652;2022-12-18T19:14:41;40.53;;;17.73;;
11535;SDS011;5824;49.336;8.652;2022-12-18T19:17:08;36.60;;;17.20;;
11535;SDS011;5824;49.336;8.652;2022-12-18T19:19:33;37.47;;;18.07;;
11535;SDS011;5824;49.336;8.652;2022-12-18T19:21:59;42.60;;;18.60;;
11535;SDS011;5824;49.336;8.652;2022-12-18T19:24:24;36.77;;;18.17;;
11535;SDS011;5824;49.336;8.652;2022-12-18T19:26:50;43.80;;;19.20;;
11535;SDS011;5824;49.336;8.652;2022-12-18T19:29:16;40.93;;;18.90;;
11535;SDS011;5824;49.336;8.652;2022-12-18T19:31:42;34.97;;;16.80;;
11535;SDS011;5824;49.336;8.652;2022-12-18T19:34:09;37.73;;;17.37;;
11535;SDS011;5824;49.336;8.652;2022-12-18T19:36:36;36.13;;;16.87;;
11535;SDS011;5824;49.336;8.652;2022-12-18T19:39:07;34.77;;;16.43;;
11535;SDS011;5824;49.336;8.652;2022-12-18T19:41:35;38.73;;;17.93;;
11535;SDS011;5824;49.336;8.652;2022-12-18T19:44:00;38.27;;;18.80;;
11535;SDS011;5824;49.336;8.652;2022-12-18T19:46:26;38.63;;;15.50;;
11535;SDS011;5824;49.336;8.652;2022-12-18T19:48:51;40.83;;;17.63;;
11535;SDS011;5824;49.336;8.652;2022-12-18T19:51:22;37.63;;;17.40;;
11535;SDS011;5824;49.336;8.652;2022-12-18T19:53:48;38.10;;;17.43;;
11535;SDS011;5824;49.336;8.652;2022-12-18T19:56:16;39.80;;;18.13;;
11535;SDS011;5824;49.336;8.652;2022-12-18T19:58:43;38.20;;;17.67;;
11535;SDS011;5824;49.336;8.652;2022-12-18T20:01:09;37.50;;;17.57;;
11535;SDS011;5824;49.336;8.652;2022-12-18T20:03:35;35.80;;;17.40;;
11535;SDS011;5824;49.336;8.652;2022-12-18T20:06:07;38.97;;;18.40;;
11535;SDS011;5824;49.336;8.652;2022-12-18T20:08:38;39.90;;;17.90;;
11535;SDS011;5824;49.336;8.652;2022-12-18T20:11:04;37.50;;;16.90;;
11535;SDS011;5824;49.336;8.652;2022-12-18T20:13:31;35.57;;;16.77;;
11535;SDS011;5824;49.336;8.652;2022-12-18T20:15:56;36.97;;;16.13;;
11535;SDS011;5824;49.336;8.652;2022-12-18T20:18:22;35.57;;;17.10;;
11535;SDS011;5824;49.336;8.652;2022-12-18T20:20:48;40.60;;;18.20;;
11535;SDS011;5824;49.336;8.652;2022-12-18T20:23:14;36.23;;;17.10;;
11535;SDS011;5824;49.336;8.652;2022-12-18T20:25:39;34.70;;;18.13;;
11535;SDS011;5824;49.336;8.652;2022-12-18T20:28:04;41.10;;;17.90;;
11535;SDS011;5824;49.336;8.652;2022-12-18T20:30:30;36.53;;;18.00;;
11535;SDS011;5824;49.336;8.652;2022-12-18T20:32:56;37.80;;;18.63;;
11535;SDS011;5824;49.336;8.652;2022-12-18T20:35:21;39.60;;;17.83;;
11535;SDS011;5824;49.336;8.652;2022-12-18T20:37:47;41.13;;;18.43;;
11535;SDS011;5824;49.336;8.652;2022-12-18T20:40:12;40.43;;;19.10;;
11535;SDS011;5824;49.336;8.652;2022-12-18T20:42:38;37.60;;;17.80;;
11535;SDS011;5824;49.336;8.652;2022-12-18T20:45:04;39.27;;;18.07;;
11535;SDS011;5824;49.336;8.652;2022-12-18T20:47:30;37.63;;;17.47;;
11535;SDS011;5824;49.336;8.652;2022-12-18T20:49:55;37.70;;;17.70;;
11535;SDS011;5824;49.336;8.652;2022-12-18T20:52:21;36.00;;;16.87;;
11535;SDS011;5824;49.336;8.652;2022-12-18T20:54:47;39.10;;;17.50;;
11535;SDS011;5824;49.336;8.652;2022-12-18T20:57:12;38.37;;;18.17;;
11535;SDS011;5824;49.336;8.652;2022-12-18T20:59:38;41.73;;;20.27;;
11535;SDS011;5824;49.336;8.652;2022-12-18T21:02:04;36.43;;;16.70;;
11535;SDS011;5824;49.336;8.652;2022-12-18T21:04:29;43.63;;;18.80;;
11535;SDS011;5824;49.336;8.652;2022-12-18T21:06:55;39.20;;;18.70;;
11535;SDS011;5824;49.336;8.652;2022-12-18T21:09:20;38.07;;;17.70;;
11535;SDS011;5824;49.336;8.652;2022-12-18T21:11:47;40.10;;;18.07;;
11535;SDS011;5824;49.336;8.652;2022-12-18T21:14:31;34.93;;;16.97;;
11535;SDS011;5824;49.336;8.652;2022-12-18T21:16:57;37.00;;;15.60;;
11535;SDS011;5824;49.336;8.652;2022-12-18T21:19:25;38.73;;;18.90;;
11535;SDS011;5824;49.336;8.652;2022-12-18T21:21:51;40.80;;;17.97;;
11535;SDS011;5824;49.336;8.652;2022-12-18T21:24:18;38.70;;;18.17;;
11535;SDS011;5824;49.336;8.652;2022-12-18T21:26:44;39.40;;;18.87;;
11535;SDS011;5824;49.336;8.652;2022-12-18T21:29:15;39.70;;;18.07;;
11535;SDS011;5824;49.336;8.652;2022-12-18T21:31:43;37.40;;;17.97;;
11535;SDS011;5824;49.336;8.652;2022-12-18T21:34:13;38.07;;;17.33;;
11535;SDS011;5824;49.336;8.652;2022-12-18T21:36:40;39.60;;;18.83;;
11535;SDS011;5824;49.336;8.652;2022-12-18T21:39:06;38.07;;;17.67;;
11535;SDS011;5824;49.336;8.652;2022-12-18T21:41:32;34.87;;;17.40;;
11535;SDS011;5824;49.336;8.652;2022-12-18T21:44:16;38.17;;;17.67;;
11535;SDS011;5824;49.336;8.652;2022-12-18T21:46:43;38.77;;;18.03;;
11535;SDS011;5824;49.336;8.652;2022-12-18T21:49:10;40.80;;;18.27;;
11535;SDS011;5824;49.336;8.652;2022-12-18T21:51:45;37.93;;;17.40;;
11535;SDS011;5824;49.336;8.652;2022-12-18T21:54:12;39.13;;;19.23;;
11535;SDS011;5824;49.336;8.652;2022-12-18T21:59:18;39.23;;;16.77;;
11535;SDS011;5824;49.336;8.652;2022-12-18T22:01:44;43.50;;;17.67;;
11535;SDS011;5824;49.336;8.652;2022-12-18T22:04:10;39.23;;;18.10;;
11535;SDS011;5824;49.336;8.652;2022-12-18T22:06:36;35.17;;;15.90;;
11535;SDS011;5824;49.336;8.652;2022-12-18T22:09:02;39.87;;;16.63;;
11535;SDS011;5824;49.336;8.652;2022-12-18T22:11:28;36.70;;;17.83;;
11535;SDS011;5824;49.336;8.652;2022-12-18T22:13:53;36.33;;;18.80;;
11535;SDS011;5824;49.336;8.652;2022-12-18T22:16:19;38.53;;;17.53;;
11535;SDS011;5824;49.336;8.652;2022-12-18T22:18:44;35.20;;;16.67;;
11535;SDS011;5824;49.336;8.652;2022-12-18T22:21:20;39.10;;;18.60;;
11535;SDS011;5824;49.336;8.652;2022-12-18T22:23:56;33.80;;;16.60;;
11535;SDS011;5824;49.336;8.652;2022-12-18T22:26:23;39.27;;;18.53;;
11535;SDS011;5824;49.336;8.652;2022-12-18T22:28:50;39.87;;;17.90;;
11535;SDS011;5824;49.336;8.652;2022-12-18T22:31:34;36.73;;;17.77;;
11535;SDS011;5824;49.336;8.652;2022-12-18T22:34:00;38.60;;;18.00;;
11535;SDS011;5824;49.336;8.652;2022-12-18T22:36:26;37.20;;;16.37;;
11535;SDS011;5824;49.336;8.652;2022-12-18T22:38:52;37.13;;;17.27;;
11535;SDS011;5824;49.336;8.652;2022-12-18T22:41:17;37.37;;;17.43;;
11535;SDS011;5824;49.336;8.652;2022-12-18T22:43:43;38.93;;;18.80;;
11535;SDS011;5824;49.336;8.652;2022-12-18T22:46:18;35.10;;;17.33;;
11535;SDS011;5824;49.336;8.652;2022-12-18T22:48:48;36.80;;;16.67;;
11535;SDS011;5824;49.336;8.652;2022-12-18T22:51:14;40.93;;;19.13;;
11535;SDS011;5824;49.336;8.652;2022-12-18T22:53:41;39.20;;;18.17;;
11535;SDS011;5824;49.336;8.652;2022-12-18T22:56:07;34.00;;;16.83;;
11535;SDS011;5824;49.336;8.652;2022-12-18T22:58:33;35.40;;;17.07;;
11535;SDS011;5824;49.336;8.652;2022-12-18T23:00:59;37.13;;;17.30;;